sensor_id;sensor_type;location;lat;lon;timestamp;P1;durP1;ratioP1;P2;durP2;ratioP2
55497;SDS011;41357;52.806;18.268;2023-09-12T00:01:06;24.33;;;13.70;;
55497;SDS011;41357;52.806;18.268;2023-09-12T00:03:33;29.10;;;14.63;;
55497;SDS011;41357;52.806;18.268;2023-09-12T00:06:00;27.95;;;13.77;;
55497;SDS011;41357;52.806;18.268;2023-09-12T00:08:27;21.60;;;12.65;;
55497;SDS011;41357;52.806;18.268;2023-09-12T00:11:05;22.02;;;13.23;;
55497;SDS011;41357;52.806;18.268;2023-09-12T00:13:35;27.73;;;13.80;;
55497;SDS011;41357;52.806;18.268;2023-09-12T00:16:01;26.23;;;15.57;;
55497;SDS011;41357;52.806;18.268;2023-09-12T00:18:28;32.92;;;16.60;;
55497;SDS011;41357;52.806;18.268;2023-09-12T00:20:54;22.58;;;14.63;;
55497;SDS011;41357;52.806;18.268;2023-09-12T00:23:21;26.90;;;15.63;;
55497;SDS011;41357;52.806;18.268;2023-09-12T00:25:48;25.77;;;15.65;;
55497;SDS011;41357;52.806;18.268;2023-09-12T00:28:15;24.40;;;14.30;;
55497;SDS011;41357;52.806;18.268;2023-09-12T00:30:42;26.85;;;15.13;;
55497;SDS011;41357;52.806;18.268;2023-09-12T00:33:08;28.88;;;14.32;;
55497;SDS011;41357;52.806;18.268;2023-09-12T00:35:34;24.20;;;14.27;;
55497;SDS011;41357;52.806;18.268;2023-09-12T00:38:00;28.67;;;15.50;;
55497;SDS011;41357;52.806;18.268;2023-09-12T00:40:26;28.17;;;16.25;;
55497;SDS011;41357;52.806;18.268;2023-09-12T00:42:53;25.98;;;14.82;;
55497;SDS011;41357;52.806;18.268;2023-09-12T00:45:19;26.40;;;14.15;;
55497;SDS011;41357;52.806;18.268;2023-09-12T00:47:45;24.50;;;14.98;;
55497;SDS011;41357;52.806;18.268;2023-09-12T00:50:12;23.02;;;14.98;;
55497;SDS011;41357;52.806;18.268;2023-09-12T00:52:39;31.33;;;16.75;;
55497;SDS011;41357;52.806;18.268;2023-09-12T00:55:05;28.60;;;15.60;;
55497;SDS011;41357;52.806;18.268;2023-09-12T00:57:32;24.33;;;15.43;;
55497;SDS011;41357;52.806;18.268;2023-09-12T00:59:59;30.85;;;15.60;;
55497;SDS011;41357;52.806;18.268;2023-09-12T01:02:27;25.67;;;15.82;;
55497;SDS011;41357;52.806;18.268;2023-09-12T01:04:53;24.38;;;14.73;;
55497;SDS011;41357;52.806;18.268;2023-09-12T01:07:19;28.38;;;15.35;;
55497;SDS011;41357;52.806;18.268;2023-09-12T01:09:45;25.95;;;15.05;;
55497;SDS011;41357;52.806;18.268;2023-09-12T01:12:11;25.98;;;15.98;;
55497;SDS011;41357;52.806;18.268;2023-09-12T01:14:39;27.83;;;16.35;;
55497;SDS011;41357;52.806;18.268;2023-09-12T01:17:06;29.83;;;16.45;;
55497;SDS011;41357;52.806;18.268;2023-09-12T01:19:32;25.35;;;15.07;;
55497;SDS011;41357;52.806;18.268;2023-09-12T01:27:37;28.25;;;15.27;;
55497;SDS011;41357;52.806;18.268;2023-09-12T01:30:04;24.92;;;15.00;;
55497;SDS011;41357;52.806;18.268;2023-09-12T01:32:32;24.48;;;14.60;;
55497;SDS011;41357;52.806;18.268;2023-09-12T01:34:58;30.67;;;15.32;;
55497;SDS011;41357;52.806;18.268;2023-09-12T01:37:25;33.63;;;15.30;;
55497;SDS011;41357;52.806;18.268;2023-09-12T01:39:51;23.52;;;14.82;;
55497;SDS011;41357;52.806;18.268;2023-09-12T01:42:18;27.85;;;14.98;;
55497;SDS011;41357;52.806;18.268;2023-09-12T01:44:46;28.83;;;15.60;;
55497;SDS011;41357;52.806;18.268;2023-09-12T01:47:12;28.08;;;15.85;;
55497;SDS011;41357;52.806;18.268;2023-09-12T01:49:39;27.38;;;16.83;;
55497;SDS011;41357;52.806;18.268;2023-09-12T01:52:07;25.92;;;15.73;;
55497;SDS011;41357;52.806;18.268;2023-09-12T01:54:34;30.60;;;16.25;;
55497;SDS011;41357;52.806;18.268;2023-09-12T01:57:00;28.80;;;16.77;;
55497;SDS011;41357;52.806;18.268;2023-09-12T01:59:28;29.77;;;17.05;;
55497;SDS011;41357;52.806;18.268;2023-09-12T02:01:54;31.55;;;16.83;;
55497;SDS011;41357;52.806;18.268;2023-09-12T02:04:20;28.63;;;16.70;;
55497;SDS011;41357;52.806;18.268;2023-09-12T02:06:47;26.70;;;16.67;;
55497;SDS011;41357;52.806;18.268;2023-09-12T02:09:13;28.38;;;16.35;;
55497;SDS011;41357;52.806;18.268;2023-09-12T02:11:39;29.85;;;16.75;;
55497;SDS011;41357;52.806;18.268;2023-09-12T02:14:05;27.55;;;16.27;;
55497;SDS011;41357;52.806;18.268;2023-09-12T02:16:31;26.27;;;16.20;;
55497;SDS011;41357;52.806;18.268;2023-09-12T02:18:57;29.55;;;14.77;;
55497;SDS011;41357;52.806;18.268;2023-09-12T02:21:23;27.98;;;17.27;;
55497;SDS011;41357;52.806;18.268;2023-09-12T02:23:49;29.15;;;16.83;;
55497;SDS011;41357;52.806;18.268;2023-09-12T02:26:17;32.50;;;16.20;;
55497;SDS011;41357;52.806;18.268;2023-09-12T02:28:43;27.02;;;16.38;;
55497;SDS011;41357;52.806;18.268;2023-09-12T02:31:10;30.63;;;17.00;;
55497;SDS011;41357;52.806;18.268;2023-09-12T02:33:37;29.70;;;17.58;;
55497;SDS011;41357;52.806;18.268;2023-09-12T02:36:03;33.53;;;17.60;;
55497;SDS011;41357;52.806;18.268;2023-09-12T02:38:30;33.08;;;18.17;;
55497;SDS011;41357;52.806;18.268;2023-09-12T02:40:56;31.85;;;16.80;;
55497;SDS011;41357;52.806;18.268;2023-09-12T02:43:22;33.88;;;17.65;;
55497;SDS011;41357;52.806;18.268;2023-09-12T02:45:48;26.63;;;16.35;;
55497;SDS011;41357;52.806;18.268;2023-09-12T02:48:14;29.13;;;18.00;;
55497;SDS011;41357;52.806;18.268;2023-09-12T02:50:40;27.95;;;16.67;;
55497;SDS011;41357;52.806;18.268;2023-09-12T02:53:06;29.25;;;17.20;;
55497;SDS011;41357;52.806;18.268;2023-09-12T02:55:32;26.50;;;16.58;;
55497;SDS011;41357;52.806;18.268;2023-09-12T02:57:59;31.98;;;17.90;;
55497;SDS011;41357;52.806;18.268;2023-09-12T03:00:25;32.58;;;16.40;;
55497;SDS011;41357;52.806;18.268;2023-09-12T03:02:51;26.83;;;16.73;;
55497;SDS011;41357;52.806;18.268;2023-09-12T03:05:17;27.25;;;16.60;;
55497;SDS011;41357;52.806;18.268;2023-09-12T03:07:43;28.40;;;16.42;;
55497;SDS011;41357;52.806;18.268;2023-09-12T03:10:09;31.25;;;17.88;;
55497;SDS011;41357;52.806;18.268;2023-09-12T03:12:36;31.08;;;16.58;;
55497;SDS011;41357;52.806;18.268;2023-09-12T03:15:02;27.50;;;15.68;;
55497;SDS011;41357;52.806;18.268;2023-09-12T03:17:28;31.02;;;17.58;;
55497;SDS011;41357;52.806;18.268;2023-09-12T03:19:55;30.05;;;17.58;;
55497;SDS011;41357;52.806;18.268;2023-09-12T03:22:21;28.75;;;17.02;;
55497;SDS011;41357;52.806;18.268;2023-09-12T03:24:47;26.85;;;16.83;;
55497;SDS011;41357;52.806;18.268;2023-09-12T03:27:13;34.22;;;18.05;;
55497;SDS011;41357;52.806;18.268;2023-09-12T03:29:39;26.13;;;16.77;;
55497;SDS011;41357;52.806;18.268;2023-09-12T03:32:05;33.08;;;18.00;;
55497;SDS011;41357;52.806;18.268;2023-09-12T03:34:31;28.58;;;16.92;;
55497;SDS011;41357;52.806;18.268;2023-09-12T03:36:57;38.15;;;17.38;;
55497;SDS011;41357;52.806;18.268;2023-09-12T03:39:23;31.55;;;17.38;;
55497;SDS011;41357;52.806;18.268;2023-09-12T03:41:49;32.15;;;18.65;;
55497;SDS011;41357;52.806;18.268;2023-09-12T03:44:15;34.08;;;17.95;;
55497;SDS011;41357;52.806;18.268;2023-09-12T03:46:42;27.08;;;17.73;;
55497;SDS011;41357;52.806;18.268;2023-09-12T03:49:08;30.23;;;17.88;;
55497;SDS011;41357;52.806;18.268;2023-09-12T03:51:34;29.35;;;16.77;;
55497;SDS011;41357;52.806;18.268;2023-09-12T03:54:03;25.60;;;16.40;;
55497;SDS011;41357;52.806;18.268;2023-09-12T03:56:29;26.83;;;17.65;;
55497;SDS011;41357;52.806;18.268;2023-09-12T03:58:55;30.38;;;16.10;;
55497;SDS011;41357;52.806;18.268;2023-09-12T04:01:23;30.65;;;17.10;;
55497;SDS011;41357;52.806;18.268;2023-09-12T04:03:49;26.35;;;17.27;;
55497;SDS011;41357;52.806;18.268;2023-09-12T04:06:15;27.20;;;16.85;;
55497;SDS011;41357;52.806;18.268;2023-09-12T04:08:42;29.27;;;16.23;;
55497;SDS011;41357;52.806;18.268;2023-09-12T04:11:08;29.92;;;17.60;;
55497;SDS011;41357;52.806;18.268;2023-09-12T04:13:35;30.88;;;17.73;;
55497;SDS011;41357;52.806;18.268;2023-09-12T04:16:01;30.27;;;18.25;;
55497;SDS011;41357;52.806;18.268;2023-09-12T04:18:27;28.85;;;15.95;;
55497;SDS011;41357;52.806;18.268;2023-09-12T04:20:53;29.33;;;17.30;;
55497;SDS011;41357;52.806;18.268;2023-09-12T04:23:24;31.08;;;18.25;;
55497;SDS011;41357;52.806;18.268;2023-09-12T04:25:50;33.13;;;19.40;;
55497;SDS011;41357;52.806;18.268;2023-09-12T04:28:16;29.80;;;16.60;;
55497;SDS011;41357;52.806;18.268;2023-09-12T04:30:42;31.42;;;17.98;;
55497;SDS011;41357;52.806;18.268;2023-09-12T04:33:08;29.67;;;18.65;;
55497;SDS011;41357;52.806;18.268;2023-09-12T04:35:35;30.80;;;18.38;;
55497;SDS011;41357;52.806;18.268;2023-09-12T04:38:01;34.92;;;18.50;;
55497;SDS011;41357;52.806;18.268;2023-09-12T04:40:28;29.13;;;18.65;;
55497;SDS011;41357;52.806;18.268;2023-09-12T04:42:54;28.23;;;18.00;;
55497;SDS011;41357;52.806;18.268;2023-09-12T04:45:20;34.70;;;18.40;;
55497;SDS011;41357;52.806;18.268;2023-09-12T04:47:46;33.58;;;18.23;;
55497;SDS011;41357;52.806;18.268;2023-09-12T04:50:12;34.92;;;16.98;;
55497;SDS011;41357;52.806;18.268;2023-09-12T04:52:38;29.33;;;17.92;;
55497;SDS011;41357;52.806;18.268;2023-09-12T04:55:05;33.97;;;20.33;;
55497;SDS011;41357;52.806;18.268;2023-09-12T04:57:31;31.92;;;18.35;;
55497;SDS011;41357;52.806;18.268;2023-09-12T04:59:58;29.15;;;17.02;;
55497;SDS011;41357;52.806;18.268;2023-09-12T05:02:24;38.10;;;19.27;;
55497;SDS011;41357;52.806;18.268;2023-09-12T05:04:50;34.38;;;17.50;;
55497;SDS011;41357;52.806;18.268;2023-09-12T05:07:17;34.67;;;18.23;;
55497;SDS011;41357;52.806;18.268;2023-09-12T05:09:43;31.33;;;17.30;;
55497;SDS011;41357;52.806;18.268;2023-09-12T05:12:09;33.90;;;17.27;;
55497;SDS011;41357;52.806;18.268;2023-09-12T05:14:35;34.10;;;18.33;;
55497;SDS011;41357;52.806;18.268;2023-09-12T05:17:01;30.90;;;17.08;;
55497;SDS011;41357;52.806;18.268;2023-09-12T05:19:29;32.85;;;18.05;;
55497;SDS011;41357;52.806;18.268;2023-09-12T05:21:56;28.15;;;17.30;;
55497;SDS011;41357;52.806;18.268;2023-09-12T05:24:22;31.95;;;18.40;;
55497;SDS011;41357;52.806;18.268;2023-09-12T05:26:48;36.35;;;18.17;;
55497;SDS011;41357;52.806;18.268;2023-09-12T05:29:15;33.83;;;18.45;;
55497;SDS011;41357;52.806;18.268;2023-09-12T05:31:41;32.47;;;17.75;;
55497;SDS011;41357;52.806;18.268;2023-09-12T05:34:07;33.40;;;18.75;;
55497;SDS011;41357;52.806;18.268;2023-09-12T05:36:33;29.35;;;18.23;;
55497;SDS011;41357;52.806;18.268;2023-09-12T05:39:00;38.60;;;20.13;;
55497;SDS011;41357;52.806;18.268;2023-09-12T05:41:26;38.83;;;19.95;;
55497;SDS011;41357;52.806;18.268;2023-09-12T05:43:52;35.00;;;20.27;;
55497;SDS011;41357;52.806;18.268;2023-09-12T05:46:18;41.72;;;20.85;;
55497;SDS011;41357;52.806;18.268;2023-09-12T05:48:45;37.35;;;19.20;;
55497;SDS011;41357;52.806;18.268;2023-09-12T05:51:11;37.15;;;21.58;;
55497;SDS011;41357;52.806;18.268;2023-09-12T05:53:37;45.33;;;22.42;;
55497;SDS011;41357;52.806;18.268;2023-09-12T05:56:03;38.63;;;22.02;;
55497;SDS011;41357;52.806;18.268;2023-09-12T05:58:29;37.20;;;21.92;;
55497;SDS011;41357;52.806;18.268;2023-09-12T06:00:55;35.85;;;21.63;;
55497;SDS011;41357;52.806;18.268;2023-09-12T06:03:21;44.90;;;22.52;;
55497;SDS011;41357;52.806;18.268;2023-09-12T06:05:47;35.53;;;21.20;;
55497;SDS011;41357;52.806;18.268;2023-09-12T06:08:13;43.25;;;21.58;;
55497;SDS011;41357;52.806;18.268;2023-09-12T06:10:39;39.30;;;21.27;;
55497;SDS011;41357;52.806;18.268;2023-09-12T06:13:06;40.78;;;22.02;;
55497;SDS011;41357;52.806;18.268;2023-09-12T06:15:32;38.65;;;21.15;;
55497;SDS011;41357;52.806;18.268;2023-09-12T06:17:58;32.35;;;18.90;;
55497;SDS011;41357;52.806;18.268;2023-09-12T06:20:24;36.47;;;20.27;;
55497;SDS011;41357;52.806;18.268;2023-09-12T06:22:50;36.53;;;21.00;;
55497;SDS011;41357;52.806;18.268;2023-09-12T06:25:16;31.10;;;19.50;;
55497;SDS011;41357;52.806;18.268;2023-09-12T06:27:42;40.75;;;20.73;;
55497;SDS011;41357;52.806;18.268;2023-09-12T06:30:08;42.80;;;20.15;;
55497;SDS011;41357;52.806;18.268;2023-09-12T06:32:35;33.85;;;20.20;;
55497;SDS011;41357;52.806;18.268;2023-09-12T06:35:01;36.50;;;19.55;;
55497;SDS011;41357;52.806;18.268;2023-09-12T06:37:27;35.58;;;20.25;;
55497;SDS011;41357;52.806;18.268;2023-09-12T06:39:53;31.85;;;19.30;;
55497;SDS011;41357;52.806;18.268;2023-09-12T06:42:19;35.55;;;19.77;;
55497;SDS011;41357;52.806;18.268;2023-09-12T06:44:45;33.28;;;19.75;;
55497;SDS011;41357;52.806;18.268;2023-09-12T06:47:11;40.05;;;20.67;;
55497;SDS011;41357;52.806;18.268;2023-09-12T06:49:38;35.38;;;20.08;;
55497;SDS011;41357;52.806;18.268;2023-09-12T06:52:04;36.92;;;19.45;;
55497;SDS011;41357;52.806;18.268;2023-09-12T06:54:32;32.58;;;19.60;;
55497;SDS011;41357;52.806;18.268;2023-09-12T06:56:58;41.75;;;20.02;;
55497;SDS011;41357;52.806;18.268;2023-09-12T06:59:24;39.60;;;18.80;;
55497;SDS011;41357;52.806;18.268;2023-09-12T07:01:50;32.72;;;19.77;;
55497;SDS011;41357;52.806;18.268;2023-09-12T07:04:17;33.75;;;19.35;;
55497;SDS011;41357;52.806;18.268;2023-09-12T07:06:43;38.58;;;19.20;;
55497;SDS011;41357;52.806;18.268;2023-09-12T07:09:09;33.58;;;16.88;;
55497;SDS011;41357;52.806;18.268;2023-09-12T07:11:41;22.67;;;13.98;;
55497;SDS011;41357;52.806;18.268;2023-09-12T07:14:08;23.42;;;12.88;;
55497;SDS011;41357;52.806;18.268;2023-09-12T07:16:35;21.13;;;12.77;;
55497;SDS011;41357;52.806;18.268;2023-09-12T07:19:01;19.73;;;13.10;;
55497;SDS011;41357;52.806;18.268;2023-09-12T07:21:28;20.42;;;11.18;;
55497;SDS011;41357;52.806;18.268;2023-09-12T07:23:55;20.20;;;11.85;;
55497;SDS011;41357;52.806;18.268;2023-09-12T07:26:21;21.20;;;11.73;;
55497;SDS011;41357;52.806;18.268;2023-09-12T07:28:47;16.33;;;10.73;;
55497;SDS011;41357;52.806;18.268;2023-09-12T07:31:14;15.05;;;10.00;;
55497;SDS011;41357;52.806;18.268;2023-09-12T07:33:40;15.32;;;10.00;;
55497;SDS011;41357;52.806;18.268;2023-09-12T07:36:06;19.15;;;10.82;;
55497;SDS011;41357;52.806;18.268;2023-09-12T07:38:32;14.82;;;9.80;;
55497;SDS011;41357;52.806;18.268;2023-09-12T07:41:00;16.75;;;10.10;;
55497;SDS011;41357;52.806;18.268;2023-09-12T07:43:28;17.75;;;11.52;;
55497;SDS011;41357;52.806;18.268;2023-09-12T07:45:57;17.55;;;9.35;;
55497;SDS011;41357;52.806;18.268;2023-09-12T07:48:23;16.27;;;9.02;;
55497;SDS011;41357;52.806;18.268;2023-09-12T07:50:50;12.82;;;7.93;;
55497;SDS011;41357;52.806;18.268;2023-09-12T07:53:16;12.23;;;8.00;;
55497;SDS011;41357;52.806;18.268;2023-09-12T07:55:43;15.25;;;8.75;;
55497;SDS011;41357;52.806;18.268;2023-09-12T07:58:15;15.77;;;8.98;;
55497;SDS011;41357;52.806;18.268;2023-09-12T08:00:46;15.40;;;8.35;;
55497;SDS011;41357;52.806;18.268;2023-09-12T08:03:12;12.70;;;9.43;;
55497;SDS011;41357;52.806;18.268;2023-09-12T08:05:40;15.80;;;9.23;;
55497;SDS011;41357;52.806;18.268;2023-09-12T08:08:06;17.35;;;10.07;;
55497;SDS011;41357;52.806;18.268;2023-09-12T08:10:32;18.92;;;8.98;;
55497;SDS011;41357;52.806;18.268;2023-09-12T08:12:58;18.95;;;8.55;;
55497;SDS011;41357;52.806;18.268;2023-09-12T08:15:25;13.27;;;9.05;;
55497;SDS011;41357;52.806;18.268;2023-09-12T08:17:51;15.50;;;8.80;;
55497;SDS011;41357;52.806;18.268;2023-09-12T08:20:18;22.65;;;9.85;;
55497;SDS011;41357;52.806;18.268;2023-09-12T08:22:44;21.23;;;11.00;;
55497;SDS011;41357;52.806;18.268;2023-09-12T08:25:10;24.17;;;12.05;;
55497;SDS011;41357;52.806;18.268;2023-09-12T08:27:37;18.83;;;11.32;;
55497;SDS011;41357;52.806;18.268;2023-09-12T08:30:04;21.52;;;12.35;;
55497;SDS011;41357;52.806;18.268;2023-09-12T08:32:30;34.50;;;15.50;;
55497;SDS011;41357;52.806;18.268;2023-09-12T08:34:56;23.38;;;15.10;;
55497;SDS011;41357;52.806;18.268;2023-09-12T08:37:22;28.58;;;14.93;;
55497;SDS011;41357;52.806;18.268;2023-09-12T08:39:48;22.27;;;13.20;;
55497;SDS011;41357;52.806;18.268;2023-09-12T08:42:15;21.80;;;11.20;;
55497;SDS011;41357;52.806;18.268;2023-09-12T08:44:42;19.77;;;11.02;;
55497;SDS011;41357;52.806;18.268;2023-09-12T08:47:09;22.60;;;11.95;;
55497;SDS011;41357;52.806;18.268;2023-09-12T08:49:35;25.35;;;13.68;;
55497;SDS011;41357;52.806;18.268;2023-09-12T08:52:02;19.98;;;13.40;;
55497;SDS011;41357;52.806;18.268;2023-09-12T08:54:29;15.27;;;7.60;;
55497;SDS011;41357;52.806;18.268;2023-09-12T08:56:55;11.77;;;8.23;;
55497;SDS011;41357;52.806;18.268;2023-09-12T08:59:21;9.43;;;6.90;;
55497;SDS011;41357;52.806;18.268;2023-09-12T09:01:47;14.45;;;8.07;;
55497;SDS011;41357;52.806;18.268;2023-09-12T09:04:17;15.80;;;7.83;;
55497;SDS011;41357;52.806;18.268;2023-09-12T09:06:45;12.18;;;8.23;;
55497;SDS011;41357;52.806;18.268;2023-09-12T09:09:11;10.35;;;6.43;;
55497;SDS011;41357;52.806;18.268;2023-09-12T09:11:38;19.42;;;7.80;;
55497;SDS011;41357;52.806;18.268;2023-09-12T09:14:04;7.45;;;5.68;;
55497;SDS011;41357;52.806;18.268;2023-09-12T09:16:30;7.43;;;5.72;;
55497;SDS011;41357;52.806;18.268;2023-09-12T09:18:58;9.30;;;5.43;;
55497;SDS011;41357;52.806;18.268;2023-09-12T09:21:28;16.95;;;6.20;;
55497;SDS011;41357;52.806;18.268;2023-09-12T09:23:57;14.48;;;6.35;;
55497;SDS011;41357;52.806;18.268;2023-09-12T09:26:24;9.05;;;7.07;;
55497;SDS011;41357;52.806;18.268;2023-09-12T09:29:03;10.82;;;5.50;;
55497;SDS011;41357;52.806;18.268;2023-09-12T09:31:29;9.73;;;5.80;;
55497;SDS011;41357;52.806;18.268;2023-09-12T09:33:57;11.18;;;5.68;;
55497;SDS011;41357;52.806;18.268;2023-09-12T09:36:24;18.75;;;6.50;;
55497;SDS011;41357;52.806;18.268;2023-09-12T09:38:50;8.55;;;5.78;;
55497;SDS011;41357;52.806;18.268;2023-09-12T09:41:19;7.82;;;5.35;;
55497;SDS011;41357;52.806;18.268;2023-09-12T09:43:49;7.85;;;4.93;;
55497;SDS011;41357;52.806;18.268;2023-09-12T09:46:15;8.68;;;5.05;;
55497;SDS011;41357;52.806;18.268;2023-09-12T09:48:48;9.00;;;4.90;;
55497;SDS011;41357;52.806;18.268;2023-09-12T09:51:14;6.57;;;5.22;;
55497;SDS011;41357;52.806;18.268;2023-09-12T09:53:40;6.75;;;5.30;;
55497;SDS011;41357;52.806;18.268;2023-09-12T09:58:35;6.70;;;5.15;;
55497;SDS011;41357;52.806;18.268;2023-09-12T10:01:02;7.00;;;5.75;;
55497;SDS011;41357;52.806;18.268;2023-09-12T10:03:32;14.40;;;7.75;;
55497;SDS011;41357;52.806;18.268;2023-09-12T10:06:00;14.52;;;7.53;;
55497;SDS011;41357;52.806;18.268;2023-09-12T10:08:28;11.65;;;6.63;;
55497;SDS011;41357;52.806;18.268;2023-09-12T10:10:55;10.32;;;6.60;;
55497;SDS011;41357;52.806;18.268;2023-09-12T10:13:21;7.72;;;5.75;;
55497;SDS011;41357;52.806;18.268;2023-09-12T10:15:47;13.35;;;5.93;;
55497;SDS011;41357;52.806;18.268;2023-09-12T10:18:16;5.70;;;4.90;;
55497;SDS011;41357;52.806;18.268;2023-09-12T10:20:47;5.57;;;4.72;;
55497;SDS011;41357;52.806;18.268;2023-09-12T10:23:23;7.35;;;4.63;;
55497;SDS011;41357;52.806;18.268;2023-09-12T10:25:50;8.30;;;4.97;;
55497;SDS011;41357;52.806;18.268;2023-09-12T10:28:16;10.20;;;4.90;;
55497;SDS011;41357;52.806;18.268;2023-09-12T10:30:43;9.77;;;6.10;;
55497;SDS011;41357;52.806;18.268;2023-09-12T10:33:10;10.18;;;5.40;;
55497;SDS011;41357;52.806;18.268;2023-09-12T10:35:37;8.02;;;4.50;;
55497;SDS011;41357;52.806;18.268;2023-09-12T10:38:04;7.05;;;4.95;;
55497;SDS011;41357;52.806;18.268;2023-09-12T10:40:31;8.52;;;4.88;;
55497;SDS011;41357;52.806;18.268;2023-09-12T10:42:57;6.68;;;5.13;;
55497;SDS011;41357;52.806;18.268;2023-09-12T10:45:25;6.80;;;5.10;;
55497;SDS011;41357;52.806;18.268;2023-09-12T10:47:52;6.25;;;4.85;;
55497;SDS011;41357;52.806;18.268;2023-09-12T10:50:19;9.18;;;5.20;;
55497;SDS011;41357;52.806;18.268;2023-09-12T10:52:45;10.93;;;5.07;;
55497;SDS011;41357;52.806;18.268;2023-09-12T10:55:15;10.50;;;6.60;;
55497;SDS011;41357;52.806;18.268;2023-09-12T11:00:28;6.05;;;4.80;;
55497;SDS011;41357;52.806;18.268;2023-09-12T11:02:57;6.30;;;4.93;;
55497;SDS011;41357;52.806;18.268;2023-09-12T11:08:03;7.90;;;5.20;;
55497;SDS011;41357;52.806;18.268;2023-09-12T11:10:29;8.15;;;5.13;;
55497;SDS011;41357;52.806;18.268;2023-09-12T11:12:57;7.68;;;5.00;;
55497;SDS011;41357;52.806;18.268;2023-09-12T11:15:25;7.85;;;5.78;;
55497;SDS011;41357;52.806;18.268;2023-09-12T11:18:01;6.82;;;5.45;;
55497;SDS011;41357;52.806;18.268;2023-09-12T11:20:48;8.23;;;5.03;;
55497;SDS011;41357;52.806;18.268;2023-09-12T11:23:14;8.70;;;4.97;;
55497;SDS011;41357;52.806;18.268;2023-09-12T11:25:40;8.82;;;5.43;;
55497;SDS011;41357;52.806;18.268;2023-09-12T11:28:06;6.65;;;5.30;;
55497;SDS011;41357;52.806;18.268;2023-09-12T11:30:32;9.98;;;5.53;;
55497;SDS011;41357;52.806;18.268;2023-09-12T11:33:02;7.97;;;5.43;;
55497;SDS011;41357;52.806;18.268;2023-09-12T11:35:29;12.30;;;6.70;;
55497;SDS011;41357;52.806;18.268;2023-09-12T11:37:56;6.28;;;5.15;;
55497;SDS011;41357;52.806;18.268;2023-09-12T11:40:24;7.85;;;6.00;;
55497;SDS011;41357;52.806;18.268;2023-09-12T11:42:50;10.00;;;5.97;;
55497;SDS011;41357;52.806;18.268;2023-09-12T11:45:20;6.90;;;4.78;;
55497;SDS011;41357;52.806;18.268;2023-09-12T11:47:46;10.63;;;5.07;;
55497;SDS011;41357;52.806;18.268;2023-09-12T11:53:02;6.68;;;4.88;;
55497;SDS011;41357;52.806;18.268;2023-09-12T11:55:30;5.50;;;4.85;;
55497;SDS011;41357;52.806;18.268;2023-09-12T11:57:57;8.57;;;5.10;;
55497;SDS011;41357;52.806;18.268;2023-09-12T12:00:23;6.07;;;5.05;;
55497;SDS011;41357;52.806;18.268;2023-09-12T12:02:51;7.45;;;5.30;;
55497;SDS011;41357;52.806;18.268;2023-09-12T12:05:17;7.72;;;5.38;;
55497;SDS011;41357;52.806;18.268;2023-09-12T12:07:44;6.38;;;4.68;;
55497;SDS011;41357;52.806;18.268;2023-09-12T12:10:12;7.03;;;5.10;;
55497;SDS011;41357;52.806;18.268;2023-09-12T12:12:38;10.05;;;5.03;;
55497;SDS011;41357;52.806;18.268;2023-09-12T12:15:09;7.60;;;4.90;;
55497;SDS011;41357;52.806;18.268;2023-09-12T12:17:36;5.53;;;4.80;;
55497;SDS011;41357;52.806;18.268;2023-09-12T12:20:06;9.00;;;5.28;;
55497;SDS011;41357;52.806;18.268;2023-09-12T12:22:33;6.32;;;5.13;;
55497;SDS011;41357;52.806;18.268;2023-09-12T12:25:05;6.82;;;4.65;;
55497;SDS011;41357;52.806;18.268;2023-09-12T12:27:32;10.00;;;4.95;;
55497;SDS011;41357;52.806;18.268;2023-09-12T12:29:58;7.72;;;4.90;;
55497;SDS011;41357;52.806;18.268;2023-09-12T12:32:24;7.50;;;5.38;;
55497;SDS011;41357;52.806;18.268;2023-09-12T12:34:50;9.52;;;5.25;;
55497;SDS011;41357;52.806;18.268;2023-09-12T12:37:16;7.78;;;5.20;;
55497;SDS011;41357;52.806;18.268;2023-09-12T12:39:43;10.38;;;5.00;;
55497;SDS011;41357;52.806;18.268;2023-09-12T12:42:09;8.45;;;5.15;;
55497;SDS011;41357;52.806;18.268;2023-09-12T12:44:35;9.48;;;5.20;;
55497;SDS011;41357;52.806;18.268;2023-09-12T12:49:35;6.25;;;4.72;;
55497;SDS011;41357;52.806;18.268;2023-09-12T12:52:02;10.35;;;5.20;;
55497;SDS011;41357;52.806;18.268;2023-09-12T12:54:31;7.20;;;4.63;;
55497;SDS011;41357;52.806;18.268;2023-09-12T12:56:59;8.15;;;5.15;;
55497;SDS011;41357;52.806;18.268;2023-09-12T12:59:25;9.88;;;4.68;;
55497;SDS011;41357;52.806;18.268;2023-09-12T13:01:52;10.85;;;5.30;;
55497;SDS011;41357;52.806;18.268;2023-09-12T13:04:18;6.85;;;5.25;;
55497;SDS011;41357;52.806;18.268;2023-09-12T13:06:44;7.60;;;5.25;;
55497;SDS011;41357;52.806;18.268;2023-09-12T13:09:11;7.18;;;5.22;;
55497;SDS011;41357;52.806;18.268;2023-09-12T13:11:37;6.50;;;4.97;;
55497;SDS011;41357;52.806;18.268;2023-09-12T13:14:04;6.22;;;5.47;;
55497;SDS011;41357;52.806;18.268;2023-09-12T13:16:39;8.45;;;5.35;;
55497;SDS011;41357;52.806;18.268;2023-09-12T13:19:06;6.80;;;4.80;;
55497;SDS011;41357;52.806;18.268;2023-09-12T13:21:32;7.20;;;4.80;;
55497;SDS011;41357;52.806;18.268;2023-09-12T13:23:58;6.95;;;4.53;;
55497;SDS011;41357;52.806;18.268;2023-09-12T13:26:24;8.75;;;5.07;;
55497;SDS011;41357;52.806;18.268;2023-09-12T13:28:50;7.30;;;5.40;;
55497;SDS011;41357;52.806;18.268;2023-09-12T13:31:16;7.15;;;4.93;;
55497;SDS011;41357;52.806;18.268;2023-09-12T13:33:43;7.85;;;5.43;;
55497;SDS011;41357;52.806;18.268;2023-09-12T13:36:09;8.55;;;5.15;;
55497;SDS011;41357;52.806;18.268;2023-09-12T13:38:35;14.05;;;5.25;;
55497;SDS011;41357;52.806;18.268;2023-09-12T13:41:01;8.57;;;4.97;;
55497;SDS011;41357;52.806;18.268;2023-09-12T13:43:28;10.20;;;5.13;;
55497;SDS011;41357;52.806;18.268;2023-09-12T13:45:54;11.32;;;5.28;;
55497;SDS011;41357;52.806;18.268;2023-09-12T13:48:20;9.60;;;4.88;;
55497;SDS011;41357;52.806;18.268;2023-09-12T13:50:46;6.10;;;5.03;;
55497;SDS011;41357;52.806;18.268;2023-09-12T13:53:12;6.53;;;5.53;;
55497;SDS011;41357;52.806;18.268;2023-09-12T13:55:39;9.43;;;5.90;;
55497;SDS011;41357;52.806;18.268;2023-09-12T13:58:05;7.68;;;5.32;;
55497;SDS011;41357;52.806;18.268;2023-09-12T14:00:33;7.32;;;5.40;;
55497;SDS011;41357;52.806;18.268;2023-09-12T14:03:00;6.88;;;5.40;;
55497;SDS011;41357;52.806;18.268;2023-09-12T14:05:26;7.18;;;5.18;;
55497;SDS011;41357;52.806;18.268;2023-09-12T14:07:52;7.53;;;5.45;;
55497;SDS011;41357;52.806;18.268;2023-09-12T14:10:18;8.52;;;5.47;;
55497;SDS011;41357;52.806;18.268;2023-09-12T14:12:44;8.38;;;5.18;;
55497;SDS011;41357;52.806;18.268;2023-09-12T14:15:11;7.88;;;5.55;;
55497;SDS011;41357;52.806;18.268;2023-09-12T14:17:39;7.10;;;4.90;;
55497;SDS011;41357;52.806;18.268;2023-09-12T14:20:05;8.70;;;5.10;;
55497;SDS011;41357;52.806;18.268;2023-09-12T14:22:32;15.05;;;5.60;;
55497;SDS011;41357;52.806;18.268;2023-09-12T14:24:58;6.95;;;5.43;;
55497;SDS011;41357;52.806;18.268;2023-09-12T14:27:25;8.45;;;5.20;;
55497;SDS011;41357;52.806;18.268;2023-09-12T14:29:51;9.82;;;5.90;;
55497;SDS011;41357;52.806;18.268;2023-09-12T14:32:18;8.45;;;5.75;;
55497;SDS011;41357;52.806;18.268;2023-09-12T14:34:44;8.88;;;5.50;;